Airfield :
LOGIN :

Register | Disclaimer

   EN    FR    IT 

 










Legend :    VFR   Marginal VFR   IFR   Intensive IFR   Very Intensive IFR
Visi :
Ceiling :
>= 8 km
>= 3000ft
5 to 8 km
1000 to 3000 ft
1500m to 5 km
500 to 1000 ft
800 to 1500m
200 to 500 ft
< 800m
< 200 ft
Symbols :   Thunderstorms  Fog  Heavy snow  Heavy precipitations  Wind > 20 kt
SIGMETs :     Misc.  Thunderstorms  Icing  Turbulence  Mountain Waves  Volcanic Ashes






- Airport Elevation : 336 ft
- IATA code : GCI


EGJB - Guernsey

CURRENT METAR :
  • 170520Z 01003KT 9999 SCT025 08/05 Q1008

EXPIRED METARs :
  • 170450Z 36002KT 9999 -SHRA SCT025 BKN048 08/05 Q1008
  • 170420Z 01001KT 9999 FEW025 SCT048 07/05 Q1008
  • 170350Z 01001KT 9999 FEW025 08/05 Q1008
  • 170250Z 00000KT 9999 FEW025 07/04 Q1008

TAF TAF EGJB
Valid from the 17 at 06:00 until the 17 at 15:00 UTC


170458Z 1706/1715 VRB03KT 9999 FEW015 BKN035
PROB40
TEMPO 1706/1715 03010KT 8000 SHRA BKN015
ATIS : +44 1481 238 957



MET'MAP, your aeronautical weather chart ! - Copyright ORBIFLY December 2007 - Disclaimer

ORBIFLY MET'MAP TEAM :

Programming & Development : Alexandra Zaïnal
Concept & Development : Baudouin d'Aumeries
Co-Development & Prog : Marc-Olivier Méhu
Technical & hardware support : Manuel Goepfert

Contact : metmap@orbifly.com




SOURCES & CREDITS :

   NOAA